createdAt,value
2017-05-11T00:01:36.615Z,69.50
2017-05-11T00:04:05.579Z,69.30
2017-05-11T00:06:35.245Z,69.50
2017-05-11T00:09:04.177Z,69.40
2017-05-11T00:11:33.113Z,70.60
2017-05-11T00:14:02.041Z,70.90
2017-05-11T00:16:30.950Z,71.20
2017-05-11T00:18:59.886Z,71.60
2017-05-11T00:21:28.797Z,71.90
2017-05-11T00:23:58.466Z,72.30
2017-05-11T00:26:27.413Z,72.40
2017-05-11T00:28:56.329Z,72.70
2017-05-11T00:31:25.263Z,72.70
2017-05-11T00:33:54.214Z,73.00
2017-05-11T00:36:23.140Z,73.00
2017-05-11T00:38:52.072Z,72.70
2017-05-11T00:41:21.033Z,73.40
2017-05-11T00:43:49.970Z,72.50
2017-05-11T00:46:18.879Z,72.20
2017-05-11T00:48:47.836Z,72.10
2017-05-11T00:51:16.887Z,71.90
2017-05-11T00:53:45.816Z,72.00
2017-05-11T00:56:15.512Z,72.20
2017-05-11T00:58:44.425Z,72.40
2017-05-11T01:01:14.074Z,72.60
2017-05-11T01:03:43.030Z,72.60
2017-05-11T01:06:11.951Z,73.00
2017-05-11T01:08:40.886Z,72.50
2017-05-11T01:11:09.845Z,72.10
2017-05-11T01:13:38.752Z,72.90
2017-05-11T01:16:07.708Z,71.70
2017-05-11T01:18:36.672Z,71.70
2017-05-11T01:21:06.322Z,72.10
2017-05-11T01:23:35.247Z,72.30
2017-05-11T01:26:04.183Z,72.50
2017-05-11T01:28:33.109Z,72.70
2017-05-11T01:31:02.049Z,72.50
2017-05-11T01:33:31.748Z,72.30
2017-05-11T01:36:00.681Z,71.90
2017-05-11T01:38:29.605Z,71.80
2017-05-11T01:40:58.570Z,71.70
2017-05-11T01:43:27.510Z,71.70
2017-05-11T01:45:56.431Z,71.90
2017-05-11T01:48:26.119Z,72.10
2017-05-11T01:50:55.026Z,72.20
2017-05-11T01:53:24.698Z,72.60
2017-05-11T01:55:53.637Z,73.00
2017-05-11T01:58:23.313Z,72.50
2017-05-11T02:00:52.249Z,72.20
2017-05-11T02:03:21.216Z,72.30
2017-05-11T02:05:50.874Z,73.30
2017-05-11T02:08:19.839Z,72.50
2017-05-11T02:10:48.790Z,72.80
2017-05-11T02:13:17.710Z,72.90
2017-05-11T02:15:47.367Z,73.10
2017-05-11T02:18:16.313Z,73.40
2017-05-11T02:20:45.968Z,73.60
2017-05-11T02:23:14.881Z,73.70
2017-05-11T02:25:43.850Z,73.70
2017-05-11T02:28:12.781Z,73.90
2017-05-11T02:30:41.689Z,74.10
2017-05-11T02:33:11.373Z,74.30
2017-05-11T02:35:40.278Z,74.10
2017-05-11T02:38:09.213Z,74.20
2017-05-11T02:40:38.169Z,74.50
2017-05-11T02:43:07.823Z,74.70
2017-05-11T02:45:36.742Z,74.80
2017-05-11T02:48:06.030Z,74.80
2017-05-11T02:50:34.960Z,74.70
2017-05-11T02:53:03.877Z,74.60
2017-05-11T02:55:32.841Z,74.70
2017-05-11T02:58:01.777Z,74.60
2017-05-11T03:00:30.687Z,74.90
2017-05-11T03:02:59.632Z,74.70
2017-05-11T03:05:29.282Z,74.90
2017-05-11T03:07:58.192Z,74.80
2017-05-11T03:10:27.153Z,74.80
2017-05-11T03:12:56.061Z,75.00
2017-05-11T03:15:24.991Z,75.40
2017-05-11T03:17:54.068Z,75.70
2017-05-11T03:20:23.001Z,75.90
2017-05-11T03:22:52.677Z,75.80
2017-05-11T03:25:21.613Z,75.80
2017-05-11T03:27:51.266Z,75.70
2017-05-11T03:30:20.200Z,75.60
2017-05-11T03:32:49.898Z,75.80
2017-05-11T03:35:18.813Z,75.40
2017-05-11T03:37:48.479Z,75.40
2017-05-11T03:40:17.434Z,75.30
2017-05-11T03:42:46.342Z,75.30
2017-05-11T03:45:15.277Z,75.40
2017-05-11T03:47:44.334Z,75.50
2017-05-11T03:50:13.264Z,75.50
2017-05-11T03:52:42.171Z,75.60
2017-05-11T03:55:11.858Z,75.60
2017-05-11T03:57:40.787Z,75.70
2017-05-11T04:00:09.702Z,75.80
2017-05-11T04:02:38.657Z,75.90
2017-05-11T04:05:08.314Z,76.10
2017-05-11T04:07:37.234Z,76.30
2017-05-11T04:10:06.197Z,76.10
2017-05-11T04:12:35.115Z,76.00
2017-05-11T04:15:04.024Z,75.80
2017-05-11T04:17:32.990Z,75.60
2017-05-11T04:20:01.920Z,74.90
2017-05-11T04:22:31.578Z,74.90
2017-05-11T04:25:00.518Z,74.60
2017-05-11T04:27:30.160Z,75.00
2017-05-11T04:29:59.065Z,73.90
2017-05-11T04:32:28.006Z,73.70
2017-05-11T04:34:56.938Z,73.60
2017-05-11T04:37:25.853Z,73.80
2017-05-11T04:39:54.818Z,73.80
2017-05-11T04:42:23.729Z,73.90
2017-05-11T04:44:52.662Z,74.40
2017-05-11T04:47:21.620Z,74.20
2017-05-11T04:49:50.551Z,73.90
2017-05-11T04:52:19.473Z,72.80
2017-05-11T04:54:49.179Z,72.50
2017-05-11T04:57:18.093Z,72.90
2017-05-11T04:59:47.029Z,72.90
2017-05-11T05:02:15.985Z,71.80
2017-05-11T05:04:44.916Z,71.30
2017-05-11T05:07:13.840Z,70.60
2017-05-11T05:09:43.780Z,70.80
2017-05-11T05:12:12.689Z,70.80
2017-05-11T05:14:41.600Z,70.10
2017-05-11T05:17:10.558Z,70.10
2017-05-11T05:19:39.482Z,69.80
2017-05-11T05:22:08.429Z,68.70
2017-05-11T05:24:37.379Z,68.90
2017-05-11T05:27:06.313Z,68.00
2017-05-11T05:29:35.248Z,68.20
2017-05-11T05:32:04.191Z,67.00
2017-05-11T05:34:33.846Z,66.70
2017-05-11T05:37:02.770Z,66.40
2017-05-11T05:39:31.741Z,66.50
2017-05-11T05:42:00.678Z,66.90
2017-05-11T05:44:29.610Z,66.50
2017-05-11T05:46:58.583Z,66.40
2017-05-11T05:49:27.518Z,65.70
2017-05-11T05:51:56.435Z,65.80
2017-05-11T05:54:25.398Z,65.30
2017-05-11T05:56:54.338Z,65.00
2017-05-11T05:59:24.073Z,64.50
2017-05-11T06:01:53.052Z,64.10
2017-05-11T06:04:21.993Z,63.40
2017-05-11T06:06:50.929Z,62.70
2017-05-11T06:09:20.618Z,62.10
2017-05-11T06:11:49.553Z,61.30
2017-05-11T06:14:18.469Z,61.70
2017-05-11T06:16:47.410Z,61.60
2017-05-11T06:19:17.089Z,61.80
2017-05-11T06:21:46.005Z,61.70
2017-05-11T06:24:15.690Z,61.70
2017-05-11T06:26:44.608Z,59.80
2017-05-11T06:29:14.266Z,59.50
2017-05-11T06:31:43.241Z,59.10
2017-05-11T06:34:12.176Z,59.30
2017-05-11T06:36:41.116Z,59.10
2017-05-11T06:39:10.071Z,58.60
2017-05-11T06:41:38.998Z,58.50
2017-05-11T06:44:07.933Z,58.40
2017-05-11T06:46:36.906Z,58.30
2017-05-11T06:49:05.823Z,58.10
2017-05-11T06:51:34.746Z,57.20
2017-05-11T06:54:04.446Z,56.80
2017-05-11T06:56:33.372Z,57.00
2017-05-11T06:59:02.292Z,56.20
2017-05-11T07:01:31.245Z,55.40
2017-05-11T07:04:00.929Z,54.90
2017-05-11T07:06:29.845Z,53.80
2017-05-11T07:08:59.531Z,53.30
2017-05-11T07:11:28.450Z,53.00
2017-05-11T07:13:57.392Z,52.50
2017-05-11T07:16:26.366Z,52.40
2017-05-11T07:18:55.304Z,51.00
2017-05-11T07:21:24.218Z,51.50
2017-05-11T07:23:53.905Z,50.40
2017-05-11T07:26:22.818Z,50.90
2017-05-11T07:28:52.469Z,50.40
2017-05-11T07:31:21.424Z,50.20
2017-05-11T07:33:51.077Z,49.20
2017-05-11T07:36:19.993Z,48.20
2017-05-11T07:38:48.942Z,47.70
2017-05-11T07:41:17.865Z,48.70
2017-05-11T07:43:46.787Z,48.20
2017-05-11T07:46:15.736Z,46.80
2017-05-11T07:48:44.670Z,46.50
2017-05-11T07:51:13.581Z,45.90
2017-05-11T07:53:43.270Z,45.80
2017-05-11T07:56:12.186Z,45.10
2017-05-11T07:58:41.107Z,44.00
2017-05-11T08:01:10.045Z,42.40
2017-05-11T08:03:38.962Z,42.20
2017-05-11T08:06:07.882Z,37.40
2017-05-11T08:08:36.831Z,36.10
2017-05-11T08:11:06.490Z,35.70
2017-05-11T08:13:35.414Z,35.00
2017-05-11T08:16:04.354Z,31.10
2017-05-11T08:18:33.266Z,28.90
2017-05-11T08:21:02.182Z,27.50
2017-05-11T08:23:31.129Z,28.10
2017-05-11T08:26:00.041Z,27.20
2017-05-11T08:28:28.961Z,26.40
2017-05-11T08:30:57.915Z,25.60
2017-05-11T08:33:26.825Z,25.60
2017-05-11T08:35:55.743Z,25.80
2017-05-11T08:38:24.691Z,24.40
2017-05-11T08:40:53.614Z,24.30
2017-05-11T08:43:22.529Z,25.10
2017-05-11T08:45:52.228Z,25.30
2017-05-11T08:48:21.147Z,24.60
2017-05-11T08:50:50.813Z,24.80
2017-05-11T08:53:19.763Z,24.30
2017-05-11T08:55:48.690Z,24.30
2017-05-11T08:58:17.614Z,23.50
2017-05-11T09:00:46.568Z,23.50
2017-05-11T09:03:15.481Z,23.20
2017-05-11T09:05:44.407Z,22.80
2017-05-11T09:08:14.092Z,22.70
2017-05-11T09:10:43.015Z,23.50
2017-05-11T09:13:12.679Z,23.30
2017-05-11T09:15:41.634Z,23.10
2017-05-11T09:18:10.547Z,23.10
2017-05-11T09:20:39.462Z,21.30
2017-05-11T09:23:08.401Z,21.20
2017-05-11T09:25:37.331Z,21.00
2017-05-11T09:28:06.257Z,21.10
2017-05-11T09:30:35.202Z,21.60
2017-05-11T09:33:04.115Z,20.90
2017-05-11T09:35:33.034Z,21.60
2017-05-11T09:38:01.978Z,22.10
2017-05-11T09:40:30.897Z,21.30
2017-05-11T09:42:59.812Z,21.00
2017-05-11T09:45:28.759Z,21.10
2017-05-11T09:47:57.684Z,21.00
2017-05-11T09:50:26.606Z,20.60
2017-05-11T09:52:56.293Z,20.70
2017-05-11T09:55:25.213Z,19.80
2017-05-11T09:57:54.874Z,18.70
2017-05-11T10:00:23.831Z,19.70
2017-05-11T10:02:52.742Z,18.40
2017-05-11T10:05:21.661Z,18.50
2017-05-11T10:07:50.607Z,18.80
2017-05-11T10:10:19.527Z,19.50
2017-05-11T10:12:48.446Z,19.70
2017-05-11T10:15:17.390Z,18.80
2017-05-11T10:17:46.302Z,17.60
2017-05-11T10:20:15.225Z,18.20
2017-05-11T10:22:44.171Z,17.60
2017-05-11T10:25:13.083Z,17.90
2017-05-11T10:27:42.001Z,17.70
2017-05-11T10:30:10.946Z,17.10
2017-05-11T10:32:39.861Z,17.40
2017-05-11T10:35:08.773Z,18.20
2017-05-11T10:37:37.718Z,18.60
2017-05-11T10:40:06.629Z,17.80
2017-05-11T10:42:35.549Z,17.40
2017-05-11T10:45:04.498Z,17.30
2017-05-11T10:47:33.411Z,16.70
2017-05-11T10:50:01.857Z,16.20
2017-05-11T10:52:30.813Z,17.70
2017-05-11T10:54:59.730Z,17.40
2017-05-11T10:57:29.386Z,16.50
2017-05-11T10:59:58.344Z,17.00
2017-05-11T11:02:27.255Z,17.10
2017-05-11T11:04:56.179Z,16.40
2017-05-11T11:07:25.123Z,16.30
2017-05-11T11:09:54.038Z,14.80
2017-05-11T11:12:22.954Z,14.70
2017-05-11T11:14:51.900Z,15.00
2017-05-11T11:17:20.817Z,15.40
2017-05-11T11:19:49.730Z,15.50
2017-05-11T11:22:18.673Z,15.20
2017-05-11T11:24:47.592Z,15.80
2017-05-11T11:27:16.506Z,15.30
2017-05-11T11:29:45.453Z,16.00
2017-05-11T11:32:14.432Z,15.60
2017-05-11T11:34:43.505Z,15.10
2017-05-11T11:37:12.449Z,15.30
2017-05-11T11:39:41.371Z,16.80
2017-05-11T11:42:09.829Z,17.40
2017-05-11T11:44:38.301Z,18.30
2017-05-11T11:47:07.214Z,18.70
2017-05-11T11:49:35.669Z,18.60
2017-05-11T11:52:04.882Z,19.20
2017-05-11T11:54:33.796Z,19.80
2017-05-11T11:57:02.709Z,20.40
2017-05-11T11:59:31.647Z,20.00
2017-05-11T12:02:00.568Z,21.10
2017-05-11T12:04:29.484Z,21.70
2017-05-11T12:06:58.426Z,22.80
2017-05-11T12:09:27.339Z,22.40
2017-05-11T12:11:56.263Z,23.10
2017-05-11T12:14:25.312Z,23.60
2017-05-11T12:16:54.226Z,24.00
2017-05-11T12:19:23.142Z,22.90
2017-05-11T12:21:52.094Z,23.20
2017-05-11T12:24:21.007Z,23.50
2017-05-11T12:26:49.922Z,24.30
2017-05-11T12:29:18.877Z,25.10
2017-05-11T12:31:47.791Z,25.20
2017-05-11T12:34:16.708Z,25.00
2017-05-11T12:36:46.386Z,24.80
2017-05-11T12:39:15.301Z,25.50
2017-05-11T12:41:44.227Z,25.50
2017-05-11T12:44:13.235Z,26.00
2017-05-11T12:46:42.145Z,26.00
2017-05-11T12:49:11.057Z,25.80
2017-05-11T12:51:40.003Z,25.20
2017-05-11T12:54:08.944Z,25.10
2017-05-11T12:56:37.854Z,25.70
2017-05-11T12:59:07.542Z,25.70
2017-05-11T13:01:36.461Z,26.60
2017-05-11T13:04:06.119Z,27.20
2017-05-11T13:06:35.059Z,26.80
2017-05-11T13:09:04.716Z,27.20
2017-05-11T13:11:33.630Z,26.90
2017-05-11T13:14:02.641Z,26.20
2017-05-11T13:16:34.624Z,26.80
2017-05-11T13:19:04.624Z,27.50
2017-05-11T13:21:33.536Z,27.70
2017-05-11T13:24:02.462Z,27.40
2017-05-11T13:26:31.678Z,27.60
2017-05-11T13:29:00.614Z,27.90
2017-05-11T13:31:29.529Z,27.90
2017-05-11T13:33:58.477Z,28.20
2017-05-11T13:36:27.391Z,28.00
2017-05-11T13:38:56.324Z,27.90
2017-05-11T13:41:25.279Z,28.10
2017-05-11T13:43:54.956Z,28.50
2017-05-11T13:46:23.875Z,28.00
2017-05-11T13:48:52.826Z,28.00
2017-05-11T13:51:21.743Z,28.60
2017-05-11T13:53:50.682Z,28.00
2017-05-11T13:56:20.375Z,27.90
2017-05-11T13:58:49.314Z,28.10
2017-05-11T14:01:18.225Z,28.10
2017-05-11T14:03:47.187Z,28.10
2017-05-11T14:06:16.107Z,28.20
2017-05-11T14:08:45.047Z,28.20
2017-05-11T14:11:14.761Z,28.10
2017-05-11T14:13:44.446Z,27.90
2017-05-11T14:16:13.380Z,28.40
2017-05-11T14:18:42.335Z,28.50
2017-05-11T14:21:11.268Z,28.70
2017-05-11T14:23:40.186Z,28.90
2017-05-11T14:26:09.148Z,29.20
2017-05-11T14:28:38.808Z,28.40
2017-05-11T14:31:07.756Z,28.40
2017-05-11T14:33:36.714Z,29.20
2017-05-11T14:36:05.642Z,29.20
2017-05-11T14:38:34.574Z,29.50
2017-05-11T14:41:03.526Z,29.70
2017-05-11T14:43:32.451Z,29.40
2017-05-11T14:46:01.362Z,29.60
2017-05-11T14:48:30.329Z,29.60
2017-05-11T14:50:59.268Z,29.80
2017-05-11T14:53:28.212Z,30.00
2017-05-11T14:55:57.166Z,30.00
2017-05-11T14:58:26.822Z,30.60
2017-05-11T15:00:55.757Z,29.70
2017-05-11T15:03:24.702Z,29.50
2017-05-11T15:05:53.617Z,30.00
2017-05-11T15:08:22.534Z,30.00
2017-05-11T15:10:51.475Z,30.40
2017-05-11T15:13:20.394Z,30.50
2017-05-11T15:15:49.329Z,30.60
2017-05-11T15:18:19.042Z,30.00
2017-05-11T15:20:48.698Z,30.50
2017-05-11T15:23:17.613Z,30.20
2017-05-11T15:25:46.555Z,30.00
2017-05-11T15:28:15.490Z,30.30
2017-05-11T15:30:44.424Z,30.30
2017-05-11T15:33:13.396Z,30.50
2017-05-11T15:35:43.054Z,30.40
2017-05-11T15:38:11.970Z,30.30
2017-05-11T15:40:40.926Z,30.20
2017-05-11T15:43:09.860Z,30.70
2017-05-11T15:45:38.801Z,31.00
2017-05-11T15:48:07.775Z,31.20
2017-05-11T15:50:37.471Z,31.10
2017-05-11T15:53:06.421Z,31.00
2017-05-11T15:55:35.381Z,31.00
2017-05-11T15:58:05.057Z,30.60
2017-05-11T16:00:33.997Z,30.50
2017-05-11T16:03:02.957Z,30.70
2017-05-11T16:05:31.884Z,30.70
2017-05-11T16:08:00.820Z,31.10
2017-05-11T16:10:29.778Z,30.70
2017-05-11T16:12:58.702Z,31.20
2017-05-11T16:15:27.618Z,31.40
2017-05-11T16:17:56.587Z,31.50
2017-05-11T16:20:25.513Z,31.60
2017-05-11T16:22:55.174Z,31.40
2017-05-11T16:25:24.105Z,31.70
2017-05-11T16:27:53.014Z,32.20
2017-05-11T16:30:22.667Z,32.00
2017-05-11T16:32:51.636Z,32.10
2017-05-11T16:35:21.003Z,32.20
2017-05-11T16:37:49.919Z,32.10
2017-05-11T16:40:18.869Z,31.50
2017-05-11T16:42:47.806Z,31.00
2017-05-11T16:45:16.736Z,31.30
2017-05-11T16:47:45.699Z,31.40
2017-05-11T16:50:14.614Z,31.60
2017-05-11T16:52:43.544Z,31.40
2017-05-11T16:55:12.490Z,31.60
2017-05-11T16:57:41.421Z,32.00
2017-05-11T17:00:10.332Z,32.10
2017-05-11T17:02:40.026Z,31.80
2017-05-11T17:05:08.957Z,31.90
2017-05-11T17:07:37.866Z,32.10
2017-05-11T17:10:06.806Z,31.90
2017-05-11T17:12:35.731Z,31.40
2017-05-11T17:15:04.670Z,31.90
2017-05-11T17:17:33.619Z,31.60
2017-05-11T17:20:02.533Z,31.10
2017-05-11T17:22:31.452Z,31.00
2017-05-11T17:25:00.428Z,31.00
2017-05-11T17:27:29.338Z,31.10
2017-05-11T17:29:58.269Z,31.00
2017-05-11T17:32:27.975Z,31.30
2017-05-11T17:34:57.645Z,31.40
2017-05-11T17:37:26.554Z,31.60
2017-05-11T17:39:55.490Z,31.50
2017-05-11T17:42:24.413Z,31.50
2017-05-11T17:44:53.326Z,31.70
2017-05-11T17:47:22.297Z,32.10
2017-05-11T17:49:51.209Z,31.60
2017-05-11T17:52:20.137Z,31.90
2017-05-11T17:54:49.815Z,32.20
2017-05-11T17:57:18.748Z,32.30
2017-05-11T17:59:47.677Z,32.60
2017-05-11T18:02:16.618Z,33.20
2017-05-11T18:04:46.294Z,34.20
2017-05-11T18:07:15.209Z,34.50
2017-05-11T18:09:44.886Z,35.40
2017-05-11T18:12:13.813Z,35.40
2017-05-11T18:14:43.466Z,39.30
2017-05-11T18:17:12.428Z,40.80
2017-05-11T18:19:42.081Z,41.90
2017-05-11T18:22:10.997Z,43.00
2017-05-11T18:24:39.934Z,43.70
2017-05-11T18:27:08.866Z,44.10
2017-05-11T18:29:37.782Z,44.50
2017-05-11T18:32:06.727Z,45.10
2017-05-11T18:34:35.651Z,45.40
2017-05-11T18:37:04.559Z,45.80
2017-05-11T18:39:33.839Z,46.40
2017-05-11T18:42:02.773Z,46.70
2017-05-11T18:44:31.690Z,46.40
2017-05-11T18:47:01.053Z,47.40
2017-05-11T18:49:29.970Z,47.80
2017-05-11T18:51:58.910Z,47.90
2017-05-11T18:54:27.874Z,48.20
2017-05-11T18:56:56.341Z,48.50
2017-05-11T18:59:25.569Z,49.20
2017-05-11T19:01:54.085Z,49.50
2017-05-11T19:04:23.022Z,49.80
2017-05-11T19:06:51.943Z,50.20
2017-05-11T19:09:20.909Z,50.40
2017-05-11T19:11:49.846Z,50.70
2017-05-11T19:14:18.767Z,51.10
2017-05-11T19:16:48.478Z,51.70
2017-05-11T19:19:18.156Z,51.70
2017-05-11T19:21:47.094Z,51.90
2017-05-11T19:24:16.051Z,52.20
2017-05-11T19:26:44.992Z,52.40
2017-05-11T19:29:13.928Z,52.70
2017-05-11T19:31:43.791Z,53.00
2017-05-11T19:46:45.601Z,53.40
2017-05-11T19:49:14.044Z,53.90
2017-05-11T19:51:42.518Z,54.30
2017-05-11T19:54:10.998Z,54.80
2017-05-11T19:56:39.449Z,55.20
2017-05-11T19:59:07.911Z,55.30
2017-05-11T20:01:36.407Z,55.60
2017-05-11T20:04:04.873Z,55.50
2017-05-11T20:06:33.346Z,55.70
2017-05-11T20:09:01.831Z,55.80
2017-05-11T20:11:30.305Z,55.80
2017-05-11T20:13:58.748Z,55.80
2017-05-11T20:16:27.272Z,56.50
2017-05-11T20:18:56.186Z,55.90
2017-05-11T20:21:25.846Z,56.00
2017-05-11T20:23:54.802Z,55.90
2017-05-11T20:26:23.739Z,56.00
2017-05-11T20:28:52.678Z,56.00
2017-05-11T20:31:21.660Z,56.70
2017-05-11T20:33:51.335Z,56.20
2017-05-11T20:36:20.254Z,56.20
2017-05-11T20:38:49.218Z,56.30
2017-05-11T20:41:18.134Z,56.20
2017-05-11T20:43:47.095Z,55.90
2017-05-11T20:46:16.138Z,56.00
2017-05-11T20:48:44.599Z,55.60
2017-05-11T20:51:13.071Z,55.40
2017-05-11T20:53:42.048Z,55.50
2017-05-11T20:56:10.541Z,55.40
2017-05-11T20:58:39.088Z,55.50
2017-05-11T21:01:08.304Z,55.20
2017-05-11T21:03:36.771Z,55.30
2017-05-11T21:06:05.964Z,54.90
2017-05-11T21:08:34.475Z,54.90
2017-05-11T21:11:02.943Z,55.20
2017-05-11T21:13:31.858Z,55.00
2017-05-11T21:16:00.810Z,54.80
2017-05-11T21:18:29.722Z,55.00
2017-05-11T21:20:58.636Z,54.80
2017-05-11T21:23:27.602Z,54.50
2017-05-11T21:25:56.518Z,54.30
2017-05-11T21:28:25.431Z,54.60
2017-05-11T21:30:54.374Z,54.40
2017-05-11T21:33:23.287Z,54.60
2017-05-11T21:35:52.222Z,54.40
2017-05-11T21:38:21.916Z,54.50
2017-05-11T21:40:50.853Z,54.80
2017-05-11T21:43:19.766Z,55.20
2017-05-11T21:45:48.715Z,55.10
2017-05-11T21:48:18.374Z,55.50
2017-05-11T21:50:47.313Z,55.50
2017-05-11T21:53:17.000Z,55.40
2017-05-11T21:55:45.932Z,55.70
2017-05-11T21:58:14.854Z,55.80
2017-05-11T22:00:43.819Z,55.90
2017-05-11T22:03:12.761Z,56.30
2017-05-11T22:05:41.701Z,56.60
2017-05-11T22:08:10.663Z,57.10
2017-05-11T22:10:39.585Z,57.30
2017-05-11T22:13:08.503Z,57.30
2017-05-11T22:15:37.466Z,57.10
2017-05-11T22:18:07.250Z,57.30
2017-05-11T22:20:36.931Z,57.20
2017-05-11T22:23:05.894Z,57.50
2017-05-11T22:25:34.810Z,57.70
2017-05-11T22:28:03.781Z,57.50
2017-05-11T22:30:32.738Z,57.80
2017-05-11T22:33:01.677Z,57.80
2017-05-11T22:35:30.614Z,57.80
2017-05-11T22:37:59.559Z,57.80
2017-05-11T22:40:28.584Z,57.80
2017-05-11T22:42:58.394Z,57.60
2017-05-11T22:45:27.368Z,58.00
2017-05-11T22:47:56.285Z,57.90
2017-05-11T22:50:25.221Z,57.80
2017-05-11T22:52:54.939Z,57.60
2017-05-11T22:55:23.873Z,57.50
2017-05-11T22:57:52.795Z,57.10
2017-05-11T23:00:21.749Z,57.00
2017-05-11T23:02:50.662Z,56.60
2017-05-11T23:05:19.115Z,56.50
2017-05-11T23:07:47.588Z,56.60
2017-05-11T23:10:16.796Z,56.60
2017-05-11T23:12:45.267Z,56.50
2017-05-11T23:15:13.785Z,56.80
2017-05-11T23:17:42.252Z,56.60
2017-05-11T23:20:10.699Z,56.80
2017-05-11T23:22:39.917Z,56.50
2017-05-11T23:25:08.364Z,56.90
2017-05-11T23:27:36.809Z,56.80
2017-05-11T23:30:05.301Z,56.90
2017-05-11T23:32:33.760Z,57.00
2017-05-11T23:35:02.213Z,56.50
2017-05-11T23:37:31.432Z,56.60
2017-05-11T23:39:59.903Z,56.90
2017-05-11T23:42:28.370Z,56.70
2017-05-11T23:44:57.720Z,56.70
2017-05-11T23:47:26.173Z,56.80
2017-05-11T23:49:54.640Z,56.90
2017-05-11T23:52:23.860Z,57.10
2017-05-11T23:54:52.312Z,57.10
2017-05-11T23:57:21.500Z,57.40
2017-05-11T23:59:49.999Z,57.60
